메인 페이지
METAR-TAF:

METAR-TAF

공항 :

마이애미, 플로리다, 미국

마이애미 국제공항

위도: 25-47-26N, 경도: 080-18-59W, 고도: 3m

현재 날씨관측

예보는 46분 전, 03:53시(UTC)에 발표되었습니다.
4kt
온도 18°C
습도 68%
기압 1024 hPa
시정: 16.1km
고도 4000ft 상공 구름 보통
고도 18000ft 상공 구름 많음
고도 25000ft 상공 흐림

METAR: KMIA 200353Z 01004KT 10SM SCT040 BKN180 OVC250 18/12 A3024 RMK AO2 SLP238 T01830117

시각: 23:39 (04:39 UTC)

예보

예보는 1 시간 41분 전, 02:58시(UTC)에 발표되었습니다.
예보 대상 시간: 20일 03시부터 21일 06시까지 (UTC)
북북동6kt
시정: 10km
고도 4000ft 상공 구름 조금
고도 10000ft 상공 구름 보통
고도 25000ft 상공 구름 많음
20일 0500시부터 (UTC)
kt
시정: 10km
고도 3500ft 상공 구름 조금
고도 25000ft 상공 구름 보통
20일 1500시부터 (UTC)
9kt
시정: 10km
고도 3500ft 상공 구름 보통
고도 6000ft 상공 구름 많음
21일 0000시부터 (UTC)
동북동4kt
시정: 10km
고도 20000ft 상공 구름 보통

TAF: KMIA 200258Z 2003/2106 03006KT P6SM FEW040 SCT100 BKN250 FM200500 00000KT P6SM FEW035 SCT250 FM201500 08009KT P6SM SCT035 BKN060 FM210000 07004KT P6SM SCT200

4,000개 이상의 공항 관측 자료 및 예보 (METAR 및 TAF 보고).

지도상에서 검색 가능한 기상관측소가 노란 점과 빨간 점으로 표시되어 있습니다.

기상관측소 명을 보려면 표시 위로 마우스를 이동하세요.

날씨 관측과 예보를 보려면 클릭하세요.

지도 변경 : 확대하려면 엑스 표시가 있는 녹색 버튼, 축소하려면 빼기 표시가 있는 녹색 버튼, 다음 페이지의 지도를 보려면 녹색 화살표를 클릭하세요.


METAR-TAF: